Bretagne — FNBR — position and weather

sailwx.info

Track history (hours):
 
Tides and Currents Weather Stations Pressure Air Temp Water Temp Dewpoint Dewpoint Depression Visibility Wind Speed Wind Dir Waves Ship Positions

Bretagne

Operator: Brittany Ferries

Last reported at 2020-Aug-10 00:31 UTC. Time now 2020-Aug-10 02:51 UTC.
Position N 49°48' W 001°57'.

Length 151 m; beam 27 m.

Type: Ship. MMSI: 227286000.

Date/timePositionNaut miles runAvg speedWind from/ knotsBaromVisibWave heightAir tempDewpointWater temp
2020-Aug-10 00:31N 49°48' W 001°57'1413.3
2020-Aug-09 23:27N 49°59' W 001°43'5114.8
2020-Aug-09 20:01N 50°41' W 000°58'9 5.9
2020-Aug-09 18:28N 50°49' W 001°06'3 1.6
2020-Aug-09 16:30N 50°46' W 001°05'2112.2
2020-Aug-09 14:48N 50°26' W 001°16'3716.2
2020-Aug-09 12:30N 49°54' W 001°46'2919.1
2020-Aug-09 11:00N 49°27' W 001°59'2818.9
2020-Aug-09 09:31N 48°59' W 001°54'2110.2
2020-Aug-09 07:28N 48°38' W 002°02'0 0.0
2020-Aug-09 06:59N 48°38' W 002°02'7 5.0
2020-Aug-09 05:30N 48°45' W 002°08'1615.9
2020-Aug-09 04:30N 48°58' W 002°21'6813.6
2020-Aug-08 23:30N 50°02' W 001°44'1312.8
2020-Aug-08 22:30N 50°10' W 001°29'1414.1
2020-Aug-08 21:30N 50°21' W 001°17'28 7.0
2020-Aug-08 17:30N 50°49' W 001°06'30 9.9
2020-Aug-08 14:30N 50°20' W 001°18'2516.9
2020-Aug-08 13:00N 49°59' W 001°40'3019.9
2020-Aug-08 11:30N 49°33' W 002°02'1020.9
2020-Aug-08 11:00N 49°23' W 001°57'2818.9
2020-Aug-08 09:30N 48°54' W 001°58'1019.6
2020-Aug-08 09:00N 48°45' W 002°00'6 6.3
2020-Aug-08 08:00N 48°38' W 002°02'17 5.8
2020-Aug-08 05:00N 48°52' W 002°18'1313.4
2020-Aug-08 04:00N 49°05' W 002°22'612.6
2020-Aug-08 03:30N 49°12' W 002°22'713.5
2020-Aug-08 03:00N 49°18' W 002°21'3115.5
2020-Aug-08 01:00N 49°46' W 002°01'1414.2
2020-Aug-08 00:01N 49°58' W 001°47'2713.1
2020-Aug-07 21:58N 50°18' W 001°20'3012.1
2020-Aug-07 19:31N 50°46' W 001°06'2 1.1
2020-Aug-07 17:29N 50°49' W 001°06'3 3.3
2020-Aug-07 16:30N 50°46' W 001°05'3313.2
2020-Aug-07 14:00N 50°15' W 001°24'1717.0
2020-Aug-07 13:01N 50°01' W 001°39'917.8
2020-Aug-07 12:31N 49°54' W 001°47'3618.0
2020-Aug-07 10:30N 49°18' W 001°54'1020.2
2020-Aug-07 10:00N 49°08' W 001°52'30 8.5
2020-Aug-07 06:29N 48°38' W 002°02'1610.6
2020-Aug-07 05:01N 48°51' W 002°16'816.2
2020-Aug-07 04:31N 48°58' W 002°22'815.7
2020-Aug-07 04:00N 49°06' W 002°22'612.7
2020-Aug-07 03:30N 49°12' W 002°22'3714.9
2020-Aug-07 01:01N 49°47' W 002°00'2114.3
2020-Aug-06 23:31N 50°04' W 001°41'2612.9
2020-Aug-06 21:30N 50°24' W 001°15'2013.2
2020-Aug-06 20:01N 50°41' W 000°58'6 1.4
2020-Aug-06 16:00N 50°38' W 001°06'3714.9
2020-Aug-06 13:30N 50°05' W 001°33'8811.8
2020-Aug-06 06:01N 48°38' W 002°02'713.6
2020-Aug-06 05:31N 48°44' W 002°08'1616.3
2020-Aug-06 04:31N 48°58' W 002°21'816.1
2020-Aug-06 04:01N 49°06' W 002°21'2914.3
2020-Aug-06 02:00N 49°33' W 002°09'713.8
2020-Aug-06 01:31N 49°40' W 002°05'7413.4
2020-Aug-05 20:01N 50°41' W 001°03'714.5
2020-Aug-05 19:30N 50°48' W 001°07'1 0.5
2020-Aug-05 17:28N 50°49' W 001°06'3910.9
2020-Aug-05 13:53N 50°12' W 001°28'1618.3
2020-Aug-05 13:01N 49°59' W 001°42'918.6
2020-Aug-05 12:30N 49°52' W 001°52'5417.9
2020-Aug-05 09:30N 48°59' W 001°55'21 6.8
2020-Aug-05 06:28N 48°38' W 002°02'2311.9
2020-Aug-05 04:30N 48°58' W 002°22'5413.5
2020-Aug-05 00:30N 49°49' W 001°59'2914.6
2020-Aug-04 22:30N 50°12' W 001°30'1913.0
2020-Aug-04 21:00N 50°28' W 001°14'1312.7
2020-Aug-04 20:00N 50°40' W 001°04'8 2.6
2020-Aug-04 17:01N 50°47' W 001°07'9716.1
2020-Aug-04 11:00N 49°22' W 002°17'3019.8
2020-Aug-04 09:30N 48°52' W 002°19'4 0.8
2020-Aug-04 05:00N 48°49' W 002°15'1313.0
2020-Aug-04 04:01N 49°02' W 002°21'1413.6
2020-Aug-04 03:00N 49°15' W 002°21'10511.0
2020-Aug-03 17:31N 50°49' W 001°06'1111.0
2020-Aug-03 16:30N 50°38' W 001°02'1818.5
2020-Aug-03 15:30N 50°24' W 001°20'4317.1
2020-Aug-03 13:00N 49°49' W 001°58'3316.5
2020-Aug-03 11:01N 49°19' W 002°20'2019.6
2020-Aug-03 10:01N 48°59' W 002°22'1020.4
2020-Aug-03 09:31N 48°50' W 002°16'5 1.1
2020-Aug-03 05:14N 48°47' W 002°11'1013.3
2020-Aug-03 04:30N 48°54' W 002°20'1312.8
2020-Aug-03 03:30N 49°06' W 002°22'4713.4
2020-Aug-03 00:01N 49°51' W 001°57'6710.2
2020-Aug-02 17:30N 50°49' W 001°06'8 7.6
2020-Aug-02 16:30N 50°42' W 001°02'5418.0
2020-Aug-02 13:30N 49°58' W 001°51'917.3
2020-Aug-02 13:00N 49°50' W 001°58'815.9
2020-Aug-02 12:30N 49°42' W 002°00'3517.4
2020-Aug-02 10:30N 49°11' W 002°22'1019.7
2020-Aug-02 10:00N 49°01' W 002°22'12 2.4
2020-Aug-02 05:00N 48°50' W 002°15'612.3
2020-Aug-02 04:30N 48°55' W 002°20'612.3
2020-Aug-02 04:00N 49°01' W 002°22'1212.4
2020-Aug-02 03:00N 49°13' W 002°22'1211.6
2020-Aug-02 02:00N 49°24' W 002°16'1312.9
2020-Aug-02 01:00N 49°36' W 002°07'4216.6
2020-Aug-01 22:30N 50°12' W 001°35'29 4.4
2020-Aug-01 16:00N 50°34' W 001°06'3819.2
2020-Aug-01 14:00N 50°03' W 001°42'4217.0
2020-Aug-01 11:30N 49°26' W 002°15'3618.2
2020-Aug-01 09:30N 48°50' W 002°17'9 2.1
2020-Aug-01 05:30N 48°44' W 002°08'2811.3
2020-Aug-01 03:00N 49°11' W 002°22'714.0
2020-Aug-01 02:30N 49°18' W 002°20'3115.4
2020-Aug-01 00:31N 49°46' W 002°02'816.4
2020-Aug-01 00:01N 49°53' W 001°55'4015.5
2020-Jul-31 21:26N 50°26' W 001°19'25 7.2
2020-Jul-31 18:00N 50°49' W 001°06'20 8.1
2020-Jul-31 15:30N 50°29' W 001°14'6318.0
2020-Jul-31 12:00N 49°37' W 002°08'3517.6
2020-Jul-31 10:00N 49°03' W 002°22'28 7.7
2020-Jul-31 06:25N 48°38' W 002°02'0 0.6
2020-Jul-31 06:00N 48°39' W 002°02'1514.9
2020-Jul-31 05:00N 48°50' W 002°16'1312.9
2020-Jul-31 04:00N 49°02' W 002°22'3110.5
2020-Jul-31 01:00N 49°32' W 002°09'  
Track history (hours):
 
Tides and Currents Weather Stations Pressure Air Temp Water Temp Dewpoint Dewpoint Depression Visibility Wind Speed Wind Dir Waves Ship Positions

Bretagne

Operator: Brittany Ferries

Last reported at 2020-Aug-10 00:31 UTC. Time now 2020-Aug-10 02:51 UTC.
Position N 49°48' W 001°57'.

Length 151 m; beam 27 m.

Type: Ship. MMSI: 227286000.

Date/timePositionNaut miles runAvg speedWind from/ knotsBaromVisibWave heightAir tempDewpointWater temp
2020-Aug-10 00:31N 49°48' W 001°57'1413.3
2020-Aug-09 23:27N 49°59' W 001°43'5114.8
2020-Aug-09 20:01N 50°41' W 000°58'9 5.9
2020-Aug-09 18:28N 50°49' W 001°06'3 1.6
2020-Aug-09 16:30N 50°46' W 001°05'2112.2
2020-Aug-09 14:48N 50°26' W 001°16'3716.2
2020-Aug-09 12:30N 49°54' W 001°46'2919.1
2020-Aug-09 11:00N 49°27' W 001°59'2818.9
2020-Aug-09 09:31N 48°59' W 001°54'2110.2
2020-Aug-09 07:28N 48°38' W 002°02'0 0.0
2020-Aug-09 06:59N 48°38' W 002°02'7 5.0
2020-Aug-09 05:30N 48°45' W 002°08'1615.9
2020-Aug-09 04:30N 48°58' W 002°21'6813.6
2020-Aug-08 23:30N 50°02' W 001°44'1312.8
2020-Aug-08 22:30N 50°10' W 001°29'1414.1
2020-Aug-08 21:30N 50°21' W 001°17'28 7.0
2020-Aug-08 17:30N 50°49' W 001°06'30 9.9
2020-Aug-08 14:30N 50°20' W 001°18'2516.9
2020-Aug-08 13:00N 49°59' W 001°40'3019.9
2020-Aug-08 11:30N 49°33' W 002°02'1020.9
2020-Aug-08 11:00N 49°23' W 001°57'2818.9
2020-Aug-08 09:30N 48°54' W 001°58'1019.6
2020-Aug-08 09:00N 48°45' W 002°00'6 6.3
2020-Aug-08 08:00N 48°38' W 002°02'17 5.8
2020-Aug-08 05:00N 48°52' W 002°18'1313.4
2020-Aug-08 04:00N 49°05' W 002°22'612.6
2020-Aug-08 03:30N 49°12' W 002°22'713.5
2020-Aug-08 03:00N 49°18' W 002°21'3115.5
2020-Aug-08 01:00N 49°46' W 002°01'1414.2
2020-Aug-08 00:01N 49°58' W 001°47'2713.1
2020-Aug-07 21:58N 50°18' W 001°20'3012.1
2020-Aug-07 19:31N 50°46' W 001°06'2 1.1
2020-Aug-07 17:29N 50°49' W 001°06'3 3.3
2020-Aug-07 16:30N 50°46' W 001°05'3313.2
2020-Aug-07 14:00N 50°15' W 001°24'1717.0
2020-Aug-07 13:01N 50°01' W 001°39'917.8
2020-Aug-07 12:31N 49°54' W 001°47'3618.0
2020-Aug-07 10:30N 49°18' W 001°54'1020.2
2020-Aug-07 10:00N 49°08' W 001°52'30 8.5
2020-Aug-07 06:29N 48°38' W 002°02'1610.6
2020-Aug-07 05:01N 48°51' W 002°16'816.2
2020-Aug-07 04:31N 48°58' W 002°22'815.7
2020-Aug-07 04:00N 49°06' W 002°22'612.7
2020-Aug-07 03:30N 49°12' W 002°22'3714.9
2020-Aug-07 01:01N 49°47' W 002°00'2114.3
2020-Aug-06 23:31N 50°04' W 001°41'2612.9
2020-Aug-06 21:30N 50°24' W 001°15'2013.2
2020-Aug-06 20:01N 50°41' W 000°58'6 1.4
2020-Aug-06 16:00N 50°38' W 001°06'3714.9
2020-Aug-06 13:30N 50°05' W 001°33'8811.8
2020-Aug-06 06:01N 48°38' W 002°02'713.6
2020-Aug-06 05:31N 48°44' W 002°08'1616.3
2020-Aug-06 04:31N 48°58' W 002°21'816.1
2020-Aug-06 04:01N 49°06' W 002°21'2914.3
2020-Aug-06 02:00N 49°33' W 002°09'713.8
2020-Aug-06 01:31N 49°40' W 002°05'7413.4
2020-Aug-05 20:01N 50°41' W 001°03'714.5
2020-Aug-05 19:30N 50°48' W 001°07'1 0.5
2020-Aug-05 17:28N 50°49' W 001°06'3910.9
2020-Aug-05 13:53N 50°12' W 001°28'1618.3
2020-Aug-05 13:01N 49°59' W 001°42'918.6
2020-Aug-05 12:30N 49°52' W 001°52'5417.9
2020-Aug-05 09:30N 48°59' W 001°55'21 6.8
2020-Aug-05 06:28N 48°38' W 002°02'2311.9
2020-Aug-05 04:30N 48°58' W 002°22'5413.5
2020-Aug-05 00:30N 49°49' W 001°59'2914.6
2020-Aug-04 22:30N 50°12' W 001°30'1913.0
2020-Aug-04 21:00N 50°28' W 001°14'1312.7
2020-Aug-04 20:00N 50°40' W 001°04'8 2.6
2020-Aug-04 17:01N 50°47' W 001°07'9716.1
2020-Aug-04 11:00N 49°22' W 002°17'3019.8
2020-Aug-04 09:30N 48°52' W 002°19'4 0.8
2020-Aug-04 05:00N 48°49' W 002°15'1313.0
2020-Aug-04 04:01N 49°02' W 002°21'1413.6
2020-Aug-04 03:00N 49°15' W 002°21'10511.0
2020-Aug-03 17:31N 50°49' W 001°06'1111.0
2020-Aug-03 16:30N 50°38' W 001°02'1818.5
2020-Aug-03 15:30N 50°24' W 001°20'4317.1
2020-Aug-03 13:00N 49°49' W 001°58'3316.5
2020-Aug-03 11:01N 49°19' W 002°20'2019.6
2020-Aug-03 10:01N 48°59' W 002°22'1020.4
2020-Aug-03 09:31N 48°50' W 002°16'5 1.1
2020-Aug-03 05:14N 48°47' W 002°11'1013.3
2020-Aug-03 04:30N 48°54' W 002°20'1312.8
2020-Aug-03 03:30N 49°06' W 002°22'4713.4
2020-Aug-03 00:01N 49°51' W 001°57'6710.2
2020-Aug-02 17:30N 50°49' W 001°06'8 7.6
2020-Aug-02 16:30N 50°42' W 001°02'5418.0
2020-Aug-02 13:30N 49°58' W 001°51'917.3
2020-Aug-02 13:00N 49°50' W 001°58'815.9
2020-Aug-02 12:30N 49°42' W 002°00'3517.4
2020-Aug-02 10:30N 49°11' W 002°22'1019.7
2020-Aug-02 10:00N 49°01' W 002°22'12 2.4
2020-Aug-02 05:00N 48°50' W 002°15'612.3
2020-Aug-02 04:30N 48°55' W 002°20'612.3
2020-Aug-02 04:00N 49°01' W 002°22'1212.4
2020-Aug-02 03:00N 49°13' W 002°22'1211.6
2020-Aug-02 02:00N 49°24' W 002°16'1312.9
2020-Aug-02 01:00N 49°36' W 002°07'4216.6
2020-Aug-01 22:30N 50°12' W 001°35'29 4.4
2020-Aug-01 16:00N 50°34' W 001°06'3819.2
2020-Aug-01 14:00N 50°03' W 001°42'4217.0
2020-Aug-01 11:30N 49°26' W 002°15'3618.2
2020-Aug-01 09:30N 48°50' W 002°17'9 2.1
2020-Aug-01 05:30N 48°44' W 002°08'2811.3
2020-Aug-01 03:00N 49°11' W 002°22'714.0
2020-Aug-01 02:30N 49°18' W 002°20'3115.4
2020-Aug-01 00:31N 49°46' W 002°02'816.4
2020-Aug-01 00:01N 49°53' W 001°55'4015.5
2020-Jul-31 21:26N 50°26' W 001°19'25 7.2
2020-Jul-31 18:00N 50°49' W 001°06'20 8.1
2020-Jul-31 15:30N 50°29' W 001°14'6318.0
2020-Jul-31 12:00N 49°37' W 002°08'3517.6
2020-Jul-31 10:00N 49°03' W 002°22'28 7.7
2020-Jul-31 06:25N 48°38' W 002°02'0 0.6
2020-Jul-31 06:00N 48°39' W 002°02'1514.9
2020-Jul-31 05:00N 48°50' W 002°16'1312.9
2020-Jul-31 04:00N 49°02' W 002°22'3110.5
2020-Jul-31 01:00N 49°32' W 002°09'  

Dump ship's entire track history